sensor_id;sensor_type;location;lat;lon;timestamp;P1;durP1;ratioP1;P2;durP2;ratioP2
7295;SDS011;40758;54.038;11.684;2022-10-26T00:01:34;4.75;;;1.83;;
7295;SDS011;40758;54.038;11.684;2022-10-26T00:04:03;2.65;;;2.03;;
7295;SDS011;40758;54.038;11.684;2022-10-26T00:06:32;5.13;;;3.03;;
7295;SDS011;40758;54.038;11.684;2022-10-26T00:09:01;6.18;;;1.92;;
7295;SDS011;40758;54.038;11.684;2022-10-26T00:11:30;2.17;;;2.00;;
7295;SDS011;40758;54.038;11.684;2022-10-26T00:14:01;2.00;;;1.80;;
7295;SDS011;40758;54.038;11.684;2022-10-26T00:16:30;4.50;;;2.13;;
7295;SDS011;40758;54.038;11.684;2022-10-26T00:18:59;11.82;;;3.30;;
7295;SDS011;40758;54.038;11.684;2022-10-26T00:21:28;7.18;;;2.42;;
7295;SDS011;40758;54.038;11.684;2022-10-26T00:23:58;2.45;;;2.22;;
7295;SDS011;40758;54.038;11.684;2022-10-26T00:26:27;2.97;;;2.28;;
7295;SDS011;40758;54.038;11.684;2022-10-26T00:28:56;6.57;;;2.60;;
7295;SDS011;40758;54.038;11.684;2022-10-26T00:31:26;5.15;;;1.65;;
7295;SDS011;40758;54.038;11.684;2022-10-26T00:33:55;3.10;;;2.17;;
7295;SDS011;40758;54.038;11.684;2022-10-26T00:36:25;5.93;;;2.22;;
7295;SDS011;40758;54.038;11.684;2022-10-26T00:38:55;8.27;;;1.77;;
7295;SDS011;40758;54.038;11.684;2022-10-26T00:41:25;3.03;;;2.55;;
7295;SDS011;40758;54.038;11.684;2022-10-26T00:43:57;1.35;;;1.13;;
7295;SDS011;40758;54.038;11.684;2022-10-26T00:46:29;6.18;;;2.55;;
7295;SDS011;40758;54.038;11.684;2022-10-26T00:49:04;2.28;;;1.50;;
7295;SDS011;40758;54.038;11.684;2022-10-26T00:51:39;1.77;;;1.67;;
7295;SDS011;40758;54.038;11.684;2022-10-26T00:54:12;8.02;;;3.22;;
7295;SDS011;40758;54.038;11.684;2022-10-26T00:56:45;7.88;;;2.85;;
7295;SDS011;40758;54.038;11.684;2022-10-26T00:59:18;3.97;;;2.72;;
7295;SDS011;40758;54.038;11.684;2022-10-26T01:01:50;4.88;;;2.90;;
7295;SDS011;40758;54.038;11.684;2022-10-26T01:04:20;2.40;;;1.80;;
7295;SDS011;40758;54.038;11.684;2022-10-26T01:06:49;3.97;;;2.28;;
7295;SDS011;40758;54.038;11.684;2022-10-26T01:09:20;1.95;;;1.63;;
7295;SDS011;40758;54.038;11.684;2022-10-26T01:11:50;3.08;;;1.77;;
7295;SDS011;40758;54.038;11.684;2022-10-26T01:14:19;10.88;;;2.88;;
7295;SDS011;40758;54.038;11.684;2022-10-26T01:16:55;4.53;;;1.80;;
7295;SDS011;40758;54.038;11.684;2022-10-26T01:19:44;4.03;;;2.50;;
7295;SDS011;40758;54.038;11.684;2022-10-26T01:22:55;4.10;;;2.20;;
7295;SDS011;40758;54.038;11.684;2022-10-26T01:25:40;5.15;;;2.97;;
7295;SDS011;40758;54.038;11.684;2022-10-26T01:29:00;2.90;;;2.60;;
7295;SDS011;40758;54.038;11.684;2022-10-26T01:31:57;8.10;;;3.35;;
7295;SDS011;40758;54.038;11.684;2022-10-26T01:34:35;6.32;;;1.92;;
7295;SDS011;40758;54.038;11.684;2022-10-26T01:37:13;5.68;;;2.72;;
7295;SDS011;40758;54.038;11.684;2022-10-26T01:39:51;2.95;;;1.52;;
7295;SDS011;40758;54.038;11.684;2022-10-26T01:42:28;2.42;;;1.05;;
7295;SDS011;40758;54.038;11.684;2022-10-26T01:45:02;3.33;;;2.08;;
7295;SDS011;40758;54.038;11.684;2022-10-26T01:47:38;2.67;;;1.73;;
7295;SDS011;40758;54.038;11.684;2022-10-26T01:50:08;2.63;;;1.65;;
7295;SDS011;40758;54.038;11.684;2022-10-26T01:52:39;3.45;;;1.90;;
7295;SDS011;40758;54.038;11.684;2022-10-26T02:01:48;4.30;;;3.40;;
7295;SDS011;40758;54.038;11.684;2022-10-26T02:05:04;1.88;;;1.77;;
7295;SDS011;40758;54.038;11.684;2022-10-26T02:07:59;2.75;;;1.52;;
7295;SDS011;40758;54.038;11.684;2022-10-26T02:10:47;8.98;;;2.35;;
7295;SDS011;40758;54.038;11.684;2022-10-26T02:13:31;0.77;;;0.77;;
7295;SDS011;40758;54.038;11.684;2022-10-26T02:16:15;5.40;;;2.50;;
7295;SDS011;40758;54.038;11.684;2022-10-26T02:18:52;2.58;;;1.42;;
7295;SDS011;40758;54.038;11.684;2022-10-26T02:21:35;2.50;;;1.08;;
7295;SDS011;40758;54.038;11.684;2022-10-26T02:24:11;3.50;;;2.40;;
7295;SDS011;40758;54.038;11.684;2022-10-26T02:26:44;4.85;;;1.83;;
7295;SDS011;40758;54.038;11.684;2022-10-26T02:29:17;0.85;;;0.85;;
7295;SDS011;40758;54.038;11.684;2022-10-26T02:31:50;1.95;;;1.73;;
7295;SDS011;40758;54.038;11.684;2022-10-26T02:34:21;4.03;;;3.08;;
7295;SDS011;40758;54.038;11.684;2022-10-26T02:36:56;3.53;;;1.20;;
7295;SDS011;40758;54.038;11.684;2022-10-26T02:39:29;1.58;;;1.48;;
7295;SDS011;40758;54.038;11.684;2022-10-26T02:42:03;2.67;;;2.40;;
7295;SDS011;40758;54.038;11.684;2022-10-26T02:44:36;0.88;;;0.73;;
7295;SDS011;40758;54.038;11.684;2022-10-26T02:47:11;1.80;;;1.52;;
7295;SDS011;40758;54.038;11.684;2022-10-26T02:49:41;3.90;;;3.60;;
7295;SDS011;40758;54.038;11.684;2022-10-26T02:52:14;4.65;;;1.70;;
7295;SDS011;40758;54.038;11.684;2022-10-26T02:54:51;1.30;;;1.20;;
7295;SDS011;40758;54.038;11.684;2022-10-26T02:57:28;4.85;;;2.15;;
7295;SDS011;40758;54.038;11.684;2022-10-26T03:00:05;2.83;;;1.90;;
7295;SDS011;40758;54.038;11.684;2022-10-26T03:02:37;3.10;;;1.67;;
7295;SDS011;40758;54.038;11.684;2022-10-26T03:05:14;2.63;;;1.85;;
7295;SDS011;40758;54.038;11.684;2022-10-26T03:07:51;1.85;;;1.23;;
7295;SDS011;40758;54.038;11.684;2022-10-26T03:12:51;1.25;;;1.20;;
7295;SDS011;40758;54.038;11.684;2022-10-26T03:15:20;4.05;;;1.75;;
7295;SDS011;40758;54.038;11.684;2022-10-26T03:17:49;2.08;;;1.45;;
7295;SDS011;40758;54.038;11.684;2022-10-26T03:20:18;9.40;;;2.33;;
7295;SDS011;40758;54.038;11.684;2022-10-26T03:22:47;3.58;;;2.25;;
7295;SDS011;40758;54.038;11.684;2022-10-26T03:25:18;2.42;;;1.52;;
7295;SDS011;40758;54.038;11.684;2022-10-26T03:27:53;2.40;;;1.88;;
7295;SDS011;40758;54.038;11.684;2022-10-26T03:30:25;2.58;;;1.02;;
7295;SDS011;40758;54.038;11.684;2022-10-26T03:32:56;3.20;;;2.25;;
7295;SDS011;40758;54.038;11.684;2022-10-26T03:35:25;6.07;;;2.63;;
7295;SDS011;40758;54.038;11.684;2022-10-26T03:37:54;3.00;;;2.15;;
7295;SDS011;40758;54.038;11.684;2022-10-26T03:40:25;3.15;;;1.50;;
7295;SDS011;40758;54.038;11.684;2022-10-26T03:42:54;2.17;;;1.88;;
7295;SDS011;40758;54.038;11.684;2022-10-26T03:45:23;5.90;;;2.10;;
7295;SDS011;40758;54.038;11.684;2022-10-26T03:47:52;3.40;;;2.58;;
7295;SDS011;40758;54.038;11.684;2022-10-26T03:50:21;1.58;;;1.40;;
7295;SDS011;40758;54.038;11.684;2022-10-26T03:52:50;3.00;;;1.73;;
7295;SDS011;40758;54.038;11.684;2022-10-26T03:55:19;3.85;;;1.80;;
7295;SDS011;40758;54.038;11.684;2022-10-26T03:57:50;3.40;;;2.22;;
7295;SDS011;40758;54.038;11.684;2022-10-26T04:00:19;2.53;;;1.60;;
7295;SDS011;40758;54.038;11.684;2022-10-26T04:02:52;2.28;;;1.10;;
7295;SDS011;40758;54.038;11.684;2022-10-26T04:05:24;3.10;;;1.33;;
7295;SDS011;40758;54.038;11.684;2022-10-26T04:07:56;5.47;;;2.00;;
7295;SDS011;40758;54.038;11.684;2022-10-26T04:10:28;2.88;;;1.95;;
7295;SDS011;40758;54.038;11.684;2022-10-26T04:12:59;11.63;;;3.05;;
7295;SDS011;40758;54.038;11.684;2022-10-26T04:15:28;2.53;;;2.30;;
7295;SDS011;40758;54.038;11.684;2022-10-26T04:17:58;2.42;;;2.22;;
7295;SDS011;40758;54.038;11.684;2022-10-26T04:20:29;2.33;;;1.92;;
7295;SDS011;40758;54.038;11.684;2022-10-26T04:23:02;0.95;;;0.88;;
7295;SDS011;40758;54.038;11.684;2022-10-26T04:25:33;2.63;;;1.67;;
7295;SDS011;40758;54.038;11.684;2022-10-26T04:28:04;3.30;;;1.90;;
7295;SDS011;40758;54.038;11.684;2022-10-26T04:30:35;1.38;;;1.27;;
7295;SDS011;40758;54.038;11.684;2022-10-26T04:33:05;3.63;;;1.95;;
7295;SDS011;40758;54.038;11.684;2022-10-26T04:35:35;2.05;;;1.88;;
7295;SDS011;40758;54.038;11.684;2022-10-26T04:38:06;1.40;;;1.25;;
7295;SDS011;40758;54.038;11.684;2022-10-26T04:40:37;1.75;;;1.45;;
7295;SDS011;40758;54.038;11.684;2022-10-26T04:43:08;1.77;;;1.67;;
7295;SDS011;40758;54.038;11.684;2022-10-26T04:45:37;3.35;;;1.67;;
7295;SDS011;40758;54.038;11.684;2022-10-26T04:48:06;0.95;;;0.90;;
7295;SDS011;40758;54.038;11.684;2022-10-26T04:53:08;3.05;;;1.55;;
7295;SDS011;40758;54.038;11.684;2022-10-26T04:55:38;5.50;;;1.15;;
7295;SDS011;40758;54.038;11.684;2022-10-26T04:58:09;2.13;;;1.83;;
7295;SDS011;40758;54.038;11.684;2022-10-26T05:00:38;2.22;;;0.80;;
7295;SDS011;40758;54.038;11.684;2022-10-26T05:03:08;2.50;;;1.80;;
7295;SDS011;40758;54.038;11.684;2022-10-26T05:05:39;1.75;;;1.45;;
7295;SDS011;40758;54.038;11.684;2022-10-26T05:08:08;4.25;;;1.35;;
7295;SDS011;40758;54.038;11.684;2022-10-26T05:10:37;1.23;;;1.10;;
7295;SDS011;40758;54.038;11.684;2022-10-26T05:13:06;1.95;;;1.40;;
7295;SDS011;40758;54.038;11.684;2022-10-26T05:15:37;1.83;;;1.50;;
7295;SDS011;40758;54.038;11.684;2022-10-26T05:18:07;6.28;;;2.10;;
7295;SDS011;40758;54.038;11.684;2022-10-26T05:20:36;6.78;;;1.63;;
7295;SDS011;40758;54.038;11.684;2022-10-26T05:23:06;3.53;;;2.40;;
7295;SDS011;40758;54.038;11.684;2022-10-26T05:25:39;4.03;;;1.45;;
7295;SDS011;40758;54.038;11.684;2022-10-26T05:28:10;3.63;;;2.40;;
7295;SDS011;40758;54.038;11.684;2022-10-26T05:30:41;1.30;;;1.20;;
7295;SDS011;40758;54.038;11.684;2022-10-26T05:33:12;2.15;;;1.83;;
7295;SDS011;40758;54.038;11.684;2022-10-26T05:35:43;2.30;;;1.52;;
7295;SDS011;40758;54.038;11.684;2022-10-26T05:38:13;2.05;;;1.55;;
7295;SDS011;40758;54.038;11.684;2022-10-26T05:40:47;1.02;;;0.43;;
7295;SDS011;40758;54.038;11.684;2022-10-26T05:43:22;1.63;;;1.52;;
7295;SDS011;40758;54.038;11.684;2022-10-26T05:45:52;2.90;;;1.27;;
7295;SDS011;40758;54.038;11.684;2022-10-26T05:48:22;3.95;;;2.72;;
7295;SDS011;40758;54.038;11.684;2022-10-26T05:50:51;2.08;;;1.70;;
7295;SDS011;40758;54.038;11.684;2022-10-26T05:53:20;3.45;;;2.88;;
7295;SDS011;40758;54.038;11.684;2022-10-26T05:55:49;1.38;;;1.33;;
7295;SDS011;40758;54.038;11.684;2022-10-26T05:58:19;1.70;;;1.35;;
7295;SDS011;40758;54.038;11.684;2022-10-26T06:00:57;1.50;;;0.65;;
7295;SDS011;40758;54.038;11.684;2022-10-26T06:03:44;0.68;;;0.52;;
7295;SDS011;40758;54.038;11.684;2022-10-26T06:06:35;2.40;;;1.88;;
7295;SDS011;40758;54.038;11.684;2022-10-26T06:09:08;7.97;;;1.13;;
7295;SDS011;40758;54.038;11.684;2022-10-26T06:11:39;2.45;;;1.52;;
7295;SDS011;40758;54.038;11.684;2022-10-26T06:14:11;1.75;;;1.58;;
7295;SDS011;40758;54.038;11.684;2022-10-26T06:16:45;5.53;;;2.00;;
7295;SDS011;40758;54.038;11.684;2022-10-26T06:19:38;3.33;;;1.60;;
7295;SDS011;40758;54.038;11.684;2022-10-26T06:22:27;2.85;;;1.48;;
7295;SDS011;40758;54.038;11.684;2022-10-26T06:25:17;2.45;;;1.65;;
7295;SDS011;40758;54.038;11.684;2022-10-26T06:28:00;5.85;;;2.72;;
7295;SDS011;40758;54.038;11.684;2022-10-26T06:30:45;2.83;;;2.17;;
7295;SDS011;40758;54.038;11.684;2022-10-26T06:33:14;6.95;;;3.97;;
7295;SDS011;40758;54.038;11.684;2022-10-26T06:35:56;24.67;;;5.38;;
7295;SDS011;40758;54.038;11.684;2022-10-26T06:38:40;4.43;;;1.98;;
7295;SDS011;40758;54.038;11.684;2022-10-26T06:41:12;0.85;;;0.60;;
7295;SDS011;40758;54.038;11.684;2022-10-26T06:46:21;2.78;;;1.60;;
7295;SDS011;40758;54.038;11.684;2022-10-26T06:49:05;2.15;;;1.83;;
7295;SDS011;40758;54.038;11.684;2022-10-26T06:51:50;1.13;;;1.02;;
7295;SDS011;40758;54.038;11.684;2022-10-26T06:54:27;1.40;;;1.23;;
7295;SDS011;40758;54.038;11.684;2022-10-26T06:59:42;2.42;;;2.33;;
7295;SDS011;40758;54.038;11.684;2022-10-26T07:02:17;2.22;;;1.20;;
7295;SDS011;40758;54.038;11.684;2022-10-26T07:04:47;1.38;;;1.15;;
7295;SDS011;40758;54.038;11.684;2022-10-26T07:07:16;2.35;;;1.40;;
7295;SDS011;40758;54.038;11.684;2022-10-26T07:09:48;2.75;;;2.28;;
7295;SDS011;40758;54.038;11.684;2022-10-26T07:12:17;1.15;;;1.15;;
7295;SDS011;40758;54.038;11.684;2022-10-26T07:14:47;1.73;;;1.52;;
7295;SDS011;40758;54.038;11.684;2022-10-26T07:17:17;1.88;;;1.13;;
7295;SDS011;40758;54.038;11.684;2022-10-26T07:19:46;2.50;;;1.85;;
7295;SDS011;40758;54.038;11.684;2022-10-26T07:22:15;2.53;;;1.38;;
7295;SDS011;40758;54.038;11.684;2022-10-26T07:24:44;9.00;;;2.42;;
7295;SDS011;40758;54.038;11.684;2022-10-26T07:27:16;1.50;;;1.40;;
7295;SDS011;40758;54.038;11.684;2022-10-26T07:29:46;14.98;;;1.58;;
7295;SDS011;40758;54.038;11.684;2022-10-26T07:32:16;5.30;;;2.30;;
7295;SDS011;40758;54.038;11.684;2022-10-26T07:34:45;5.18;;;1.42;;
7295;SDS011;40758;54.038;11.684;2022-10-26T07:37:14;3.42;;;2.13;;
7295;SDS011;40758;54.038;11.684;2022-10-26T07:39:43;2.70;;;1.92;;
7295;SDS011;40758;54.038;11.684;2022-10-26T07:42:13;1.70;;;1.60;;
7295;SDS011;40758;54.038;11.684;2022-10-26T07:44:42;2.88;;;2.63;;
7295;SDS011;40758;54.038;11.684;2022-10-26T07:47:11;2.38;;;1.45;;
7295;SDS011;40758;54.038;11.684;2022-10-26T07:49:42;2.65;;;2.45;;
7295;SDS011;40758;54.038;11.684;2022-10-26T07:52:11;2.50;;;2.30;;
7295;SDS011;40758;54.038;11.684;2022-10-26T07:54:40;5.03;;;2.15;;
7295;SDS011;40758;54.038;11.684;2022-10-26T07:57:09;3.00;;;1.65;;
7295;SDS011;40758;54.038;11.684;2022-10-26T07:59:38;1.90;;;1.50;;
7295;SDS011;40758;54.038;11.684;2022-10-26T08:02:07;6.88;;;1.85;;
7295;SDS011;40758;54.038;11.684;2022-10-26T08:04:37;3.50;;;2.47;;
7295;SDS011;40758;54.038;11.684;2022-10-26T08:07:07;1.50;;;1.13;;
7295;SDS011;40758;54.038;11.684;2022-10-26T08:09:36;1.90;;;1.63;;
7295;SDS011;40758;54.038;11.684;2022-10-26T08:12:05;2.55;;;2.22;;
7295;SDS011;40758;54.038;11.684;2022-10-26T08:14:34;5.10;;;2.17;;
7295;SDS011;40758;54.038;11.684;2022-10-26T08:17:03;1.85;;;1.30;;
7295;SDS011;40758;54.038;11.684;2022-10-26T08:19:32;2.00;;;1.80;;
7295;SDS011;40758;54.038;11.684;2022-10-26T08:22:04;2.58;;;1.58;;
7295;SDS011;40758;54.038;11.684;2022-10-26T08:24:34;3.75;;;2.38;;
7295;SDS011;40758;54.038;11.684;2022-10-26T08:27:03;2.38;;;2.17;;
7295;SDS011;40758;54.038;11.684;2022-10-26T08:29:33;2.40;;;1.75;;
7295;SDS011;40758;54.038;11.684;2022-10-26T08:32:02;1.95;;;1.45;;
7295;SDS011;40758;54.038;11.684;2022-10-26T08:34:32;2.88;;;2.22;;
7295;SDS011;40758;54.038;11.684;2022-10-26T08:37:01;3.83;;;2.88;;
7295;SDS011;40758;54.038;11.684;2022-10-26T08:39:30;2.67;;;2.47;;
7295;SDS011;40758;54.038;11.684;2022-10-26T08:42:03;2.72;;;1.95;;
7295;SDS011;40758;54.038;11.684;2022-10-26T08:44:41;1.30;;;1.20;;
7295;SDS011;40758;54.038;11.684;2022-10-26T08:47:16;3.45;;;2.40;;
7295;SDS011;40758;54.038;11.684;2022-10-26T08:49:51;2.70;;;1.77;;
7295;SDS011;40758;54.038;11.684;2022-10-26T08:52:29;3.72;;;2.40;;
7295;SDS011;40758;54.038;11.684;2022-10-26T08:55:10;2.63;;;2.42;;
7295;SDS011;40758;54.038;11.684;2022-10-26T08:57:46;1.65;;;1.55;;
7295;SDS011;40758;54.038;11.684;2022-10-26T09:00:19;5.88;;;2.10;;
7295;SDS011;40758;54.038;11.684;2022-10-26T09:02:50;3.15;;;2.70;;
7295;SDS011;40758;54.038;11.684;2022-10-26T09:05:22;5.88;;;2.45;;
7295;SDS011;40758;54.038;11.684;2022-10-26T09:08:03;3.05;;;2.42;;
7295;SDS011;40758;54.038;11.684;2022-10-26T09:10:45;5.63;;;2.53;;
7295;SDS011;40758;54.038;11.684;2022-10-26T09:13:32;5.53;;;3.20;;
7295;SDS011;40758;54.038;11.684;2022-10-26T09:16:19;4.97;;;2.78;;
7295;SDS011;40758;54.038;11.684;2022-10-26T09:19:00;3.50;;;2.55;;
7295;SDS011;40758;54.038;11.684;2022-10-26T09:22:00;7.45;;;3.65;;
7295;SDS011;40758;54.038;11.684;2022-10-26T09:24:40;7.93;;;3.00;;
7295;SDS011;40758;54.038;11.684;2022-10-26T09:27:18;5.03;;;2.08;;
7295;SDS011;40758;54.038;11.684;2022-10-26T09:29:55;3.30;;;2.00;;
7295;SDS011;40758;54.038;11.684;2022-10-26T09:32:33;5.68;;;3.35;;
7295;SDS011;40758;54.038;11.684;2022-10-26T09:35:12;3.58;;;2.95;;
7295;SDS011;40758;54.038;11.684;2022-10-26T09:37:47;5.53;;;2.70;;
7295;SDS011;40758;54.038;11.684;2022-10-26T09:40:23;4.78;;;2.80;;
7295;SDS011;40758;54.038;11.684;2022-10-26T09:43:03;7.60;;;3.75;;
7295;SDS011;40758;54.038;11.684;2022-10-26T09:45:40;5.30;;;3.42;;
7295;SDS011;40758;54.038;11.684;2022-10-26T09:50:49;6.80;;;3.97;;
7295;SDS011;40758;54.038;11.684;2022-10-26T09:53:18;7.20;;;2.25;;
7295;SDS011;40758;54.038;11.684;2022-10-26T09:55:48;7.70;;;3.63;;
7295;SDS011;40758;54.038;11.684;2022-10-26T09:58:29;5.10;;;2.55;;
7295;SDS011;40758;54.038;11.684;2022-10-26T10:01:05;4.00;;;2.30;;
7295;SDS011;40758;54.038;11.684;2022-10-26T10:03:47;5.80;;;3.55;;
7295;SDS011;40758;54.038;11.684;2022-10-26T10:06:36;2.53;;;1.92;;
7295;SDS011;40758;54.038;11.684;2022-10-26T10:09:06;4.43;;;2.42;;
7295;SDS011;40758;54.038;11.684;2022-10-26T10:11:39;7.40;;;2.40;;
7295;SDS011;40758;54.038;11.684;2022-10-26T10:16:52;7.05;;;2.72;;
7295;SDS011;40758;54.038;11.684;2022-10-26T10:19:25;3.13;;;2.55;;
7295;SDS011;40758;54.038;11.684;2022-10-26T10:21:57;7.45;;;3.53;;
7295;SDS011;40758;54.038;11.684;2022-10-26T10:24:29;8.65;;;3.13;;
7295;SDS011;40758;54.038;11.684;2022-10-26T10:27:01;5.57;;;2.85;;
7295;SDS011;40758;54.038;11.684;2022-10-26T10:29:32;5.00;;;2.50;;
7295;SDS011;40758;54.038;11.684;2022-10-26T10:32:13;7.95;;;2.60;;
7295;SDS011;40758;54.038;11.684;2022-10-26T10:34:46;5.50;;;2.75;;
7295;SDS011;40758;54.038;11.684;2022-10-26T10:37:21;11.13;;;3.42;;
7295;SDS011;40758;54.038;11.684;2022-10-26T10:39:56;6.55;;;1.98;;
7295;SDS011;40758;54.038;11.684;2022-10-26T10:42:29;3.38;;;2.60;;
7295;SDS011;40758;54.038;11.684;2022-10-26T10:45:02;2.90;;;1.88;;
7295;SDS011;40758;54.038;11.684;2022-10-26T10:47:36;3.65;;;1.95;;
7295;SDS011;40758;54.038;11.684;2022-10-26T10:50:14;2.53;;;2.33;;
7295;SDS011;40758;54.038;11.684;2022-10-26T10:52:47;6.65;;;2.83;;
7295;SDS011;40758;54.038;11.684;2022-10-26T10:55:19;4.57;;;2.22;;
7295;SDS011;40758;54.038;11.684;2022-10-26T10:57:53;8.77;;;2.80;;
7295;SDS011;40758;54.038;11.684;2022-10-26T11:00:38;4.82;;;2.65;;
7295;SDS011;40758;54.038;11.684;2022-10-26T11:03:18;5.78;;;2.70;;
7295;SDS011;40758;54.038;11.684;2022-10-26T11:06:14;4.10;;;2.20;;
7295;SDS011;40758;54.038;11.684;2022-10-26T11:08:47;14.40;;;3.15;;
7295;SDS011;40758;54.038;11.684;2022-10-26T11:11:27;4.55;;;2.80;;
7295;SDS011;40758;54.038;11.684;2022-10-26T11:14:10;3.83;;;2.55;;
7295;SDS011;40758;54.038;11.684;2022-10-26T11:16:46;3.30;;;1.92;;
7295;SDS011;40758;54.038;11.684;2022-10-26T11:19:24;3.33;;;1.85;;
7295;SDS011;40758;54.038;11.684;2022-10-26T11:22:01;3.00;;;2.10;;
7295;SDS011;40758;54.038;11.684;2022-10-26T11:24:40;6.03;;;2.10;;
7295;SDS011;40758;54.038;11.684;2022-10-26T11:27:16;3.40;;;2.47;;
7295;SDS011;40758;54.038;11.684;2022-10-26T11:29:53;4.93;;;1.90;;
7295;SDS011;40758;54.038;11.684;2022-10-26T11:32:31;5.20;;;2.05;;
7295;SDS011;40758;54.038;11.684;2022-10-26T11:35:12;5.60;;;2.55;;
7295;SDS011;40758;54.038;11.684;2022-10-26T11:37:47;7.70;;;1.95;;
7295;SDS011;40758;54.038;11.684;2022-10-26T11:40:29;4.40;;;1.63;;
7295;SDS011;40758;54.038;11.684;2022-10-26T11:43:10;3.33;;;1.73;;
7295;SDS011;40758;54.038;11.684;2022-10-26T11:45:56;4.57;;;1.95;;
7295;SDS011;40758;54.038;11.684;2022-10-26T11:48:33;3.33;;;1.52;;
7295;SDS011;40758;54.038;11.684;2022-10-26T11:51:15;6.95;;;2.53;;
7295;SDS011;40758;54.038;11.684;2022-10-26T11:54:00;6.07;;;2.35;;
7295;SDS011;40758;54.038;11.684;2022-10-26T11:56:44;4.55;;;1.95;;
7295;SDS011;40758;54.038;11.684;2022-10-26T11:59:19;3.35;;;2.53;;
7295;SDS011;40758;54.038;11.684;2022-10-26T12:01:59;3.33;;;1.63;;
7295;SDS011;40758;54.038;11.684;2022-10-26T12:04:38;3.72;;;2.05;;
7295;SDS011;40758;54.038;11.684;2022-10-26T12:07:15;3.90;;;2.30;;
7295;SDS011;40758;54.038;11.684;2022-10-26T12:09:53;2.67;;;1.88;;
7295;SDS011;40758;54.038;11.684;2022-10-26T12:12:28;3.17;;;2.00;;
7295;SDS011;40758;54.038;11.684;2022-10-26T12:15:13;4.60;;;1.70;;
7295;SDS011;40758;54.038;11.684;2022-10-26T12:18:12;3.72;;;1.75;;
7295;SDS011;40758;54.038;11.684;2022-10-26T12:21:08;5.75;;;2.08;;
7295;SDS011;40758;54.038;11.684;2022-10-26T12:23:53;5.28;;;2.17;;
7295;SDS011;40758;54.038;11.684;2022-10-26T12:29:27;2.60;;;1.48;;
7295;SDS011;40758;54.038;11.684;2022-10-26T12:35:31;2.53;;;1.67;;
7295;SDS011;40758;54.038;11.684;2022-10-26T12:41:26;1.58;;;1.10;;
7295;SDS011;40758;54.038;11.684;2022-10-26T12:43:56;2.58;;;1.48;;
7295;SDS011;40758;54.038;11.684;2022-10-26T12:46:39;2.10;;;1.20;;
7295;SDS011;40758;54.038;11.684;2022-10-26T12:52:42;1.70;;;1.13;;
7295;SDS011;40758;54.038;11.684;2022-10-26T12:58:38;2.60;;;1.70;;
7295;SDS011;40758;54.038;11.684;2022-10-26T13:04:45;1.65;;;0.93;;
7295;SDS011;40758;54.038;11.684;2022-10-26T13:08:02;1.42;;;1.17;;
7295;SDS011;40758;54.038;11.684;2022-10-26T13:10:36;1.50;;;1.10;;
7295;SDS011;40758;54.038;11.684;2022-10-26T13:13:20;1.95;;;0.95;;
7295;SDS011;40758;54.038;11.684;2022-10-26T13:15:51;1.45;;;1.08;;
7295;SDS011;40758;54.038;11.684;2022-10-26T13:18:23;1.95;;;1.02;;
7295;SDS011;40758;54.038;11.684;2022-10-26T13:20:57;0.65;;;0.65;;
7295;SDS011;40758;54.038;11.684;2022-10-26T13:23:35;3.85;;;0.93;;
7295;SDS011;40758;54.038;11.684;2022-10-26T13:26:08;0.77;;;0.77;;
7295;SDS011;40758;54.038;11.684;2022-10-26T13:28:46;3.03;;;0.85;;
7295;SDS011;40758;54.038;11.684;2022-10-26T13:34:26;2.60;;;0.93;;
7295;SDS011;40758;54.038;11.684;2022-10-26T13:37:00;1.67;;;0.70;;
7295;SDS011;40758;54.038;11.684;2022-10-26T13:39:44;4.03;;;0.82;;
7295;SDS011;40758;54.038;11.684;2022-10-26T13:42:17;2.58;;;0.70;;
7295;SDS011;40758;54.038;11.684;2022-10-26T13:44:53;5.00;;;1.20;;
7295;SDS011;40758;54.038;11.684;2022-10-26T13:47:34;1.38;;;0.90;;
7295;SDS011;40758;54.038;11.684;2022-10-26T13:50:13;1.75;;;1.23;;
7295;SDS011;40758;54.038;11.684;2022-10-26T13:52:46;2.75;;;1.55;;
7295;SDS011;40758;54.038;11.684;2022-10-26T13:55:22;3.95;;;1.25;;
7295;SDS011;40758;54.038;11.684;2022-10-26T13:58:00;1.80;;;1.23;;
7295;SDS011;40758;54.038;11.684;2022-10-26T14:01:14;2.42;;;1.20;;
7295;SDS011;40758;54.038;11.684;2022-10-26T14:03:48;4.32;;;1.30;;
7295;SDS011;40758;54.038;11.684;2022-10-26T14:06:18;2.28;;;1.42;;
7295;SDS011;40758;54.038;11.684;2022-10-26T14:08:56;2.55;;;1.52;;
7295;SDS011;40758;54.038;11.684;2022-10-26T14:11:32;1.85;;;1.45;;
7295;SDS011;40758;54.038;11.684;2022-10-26T14:14:10;1.42;;;1.33;;
7295;SDS011;40758;54.038;11.684;2022-10-26T14:16:47;1.67;;;1.08;;
7295;SDS011;40758;54.038;11.684;2022-10-26T14:19:20;3.63;;;1.20;;
7295;SDS011;40758;54.038;11.684;2022-10-26T14:21:54;4.93;;;1.10;;
7295;SDS011;40758;54.038;11.684;2022-10-26T14:24:27;2.63;;;1.75;;
7295;SDS011;40758;54.038;11.684;2022-10-26T14:27:13;3.42;;;2.10;;
7295;SDS011;40758;54.038;11.684;2022-10-26T14:29:44;2.17;;;1.02;;
7295;SDS011;40758;54.038;11.684;2022-10-26T14:32:35;6.75;;;1.15;;
7295;SDS011;40758;54.038;11.684;2022-10-26T14:35:04;8.32;;;1.20;;
7295;SDS011;40758;54.038;11.684;2022-10-26T14:37:40;0.93;;;0.70;;
7295;SDS011;40758;54.038;11.684;2022-10-26T14:40:17;3.38;;;2.42;;
7295;SDS011;40758;54.038;11.684;2022-10-26T14:42:53;8.45;;;2.97;;
7295;SDS011;40758;54.038;11.684;2022-10-26T14:45:27;2.88;;;2.10;;
7295;SDS011;40758;54.038;11.684;2022-10-26T14:48:22;4.63;;;0.93;;
7295;SDS011;40758;54.038;11.684;2022-10-26T14:51:00;3.35;;;2.50;;
7295;SDS011;40758;54.038;11.684;2022-10-26T14:53:36;3.28;;;1.20;;
7295;SDS011;40758;54.038;11.684;2022-10-26T14:56:16;2.45;;;1.30;;
7295;SDS011;40758;54.038;11.684;2022-10-26T14:58:55;1.92;;;1.30;;
7295;SDS011;40758;54.038;11.684;2022-10-26T15:01:27;4.25;;;1.60;;
7295;SDS011;40758;54.038;11.684;2022-10-26T15:04:03;3.20;;;1.95;;
7295;SDS011;40758;54.038;11.684;2022-10-26T15:06:49;5.50;;;1.27;;
7295;SDS011;40758;54.038;11.684;2022-10-26T15:09:31;2.60;;;1.73;;
7295;SDS011;40758;54.038;11.684;2022-10-26T15:12:06;1.90;;;1.73;;
7295;SDS011;40758;54.038;11.684;2022-10-26T15:14:49;5.28;;;1.50;;
7295;SDS011;40758;54.038;11.684;2022-10-26T15:17:21;2.50;;;1.90;;
7295;SDS011;40758;54.038;11.684;2022-10-26T15:20:03;6.05;;;1.85;;
7295;SDS011;40758;54.038;11.684;2022-10-26T15:22:35;1.83;;;1.67;;
7295;SDS011;40758;54.038;11.684;2022-10-26T15:25:05;5.32;;;2.60;;
7295;SDS011;40758;54.038;11.684;2022-10-26T15:27:43;2.60;;;2.10;;
7295;SDS011;40758;54.038;11.684;2022-10-26T15:30:21;5.15;;;2.50;;
7295;SDS011;40758;54.038;11.684;2022-10-26T15:32:57;7.85;;;4.78;;
7295;SDS011;40758;54.038;11.684;2022-10-26T15:35:49;2.33;;;2.08;;
7295;SDS011;40758;54.038;11.684;2022-10-26T15:38:30;3.72;;;2.13;;
7295;SDS011;40758;54.038;11.684;2022-10-26T15:40:59;3.28;;;2.65;;
7295;SDS011;40758;54.038;11.684;2022-10-26T15:43:29;4.47;;;2.30;;
7295;SDS011;40758;54.038;11.684;2022-10-26T15:45:58;4.68;;;3.17;;
7295;SDS011;40758;54.038;11.684;2022-10-26T15:48:30;5.53;;;2.80;;
7295;SDS011;40758;54.038;11.684;2022-10-26T15:51:04;3.80;;;2.92;;
7295;SDS011;40758;54.038;11.684;2022-10-26T15:53:33;6.05;;;3.08;;
7295;SDS011;40758;54.038;11.684;2022-10-26T15:56:09;5.93;;;3.60;;
7295;SDS011;40758;54.038;11.684;2022-10-26T15:58:45;8.52;;;4.63;;
7295;SDS011;40758;54.038;11.684;2022-10-26T16:01:15;17.80;;;10.32;;
7295;SDS011;40758;54.038;11.684;2022-10-26T16:03:46;31.83;;;17.40;;
7295;SDS011;40758;54.038;11.684;2022-10-26T16:06:22;29.63;;;12.25;;
7295;SDS011;40758;54.038;11.684;2022-10-26T16:08:56;28.45;;;11.88;;
7295;SDS011;40758;54.038;11.684;2022-10-26T16:11:28;36.80;;;11.80;;
7295;SDS011;40758;54.038;11.684;2022-10-26T16:13:58;20.77;;;7.30;;
7295;SDS011;40758;54.038;11.684;2022-10-26T16:16:29;17.83;;;5.50;;
7295;SDS011;40758;54.038;11.684;2022-10-26T16:18:59;25.75;;;7.32;;
7295;SDS011;40758;54.038;11.684;2022-10-26T16:21:50;13.52;;;7.15;;